Taasinge Maersk — OUSX2 — position and weather

sailwx.info

Track history (hours):
 
Tides and Currents Weather Stations Pressure Air Temp Water Temp Dewpoint Dewpoint Depression Visibility Wind Speed Wind Dir Waves Ship Positions

Taasinge Maersk

Last reported at 2015-May-17 07:20 UTC. Time now 2015-May-23 15:01 UTC.
Position N 35°57' W 005°35'.

Length 191 m; draft 9.2 m.

Type: Cargo ship. MMSI: 220157000.

Date/timePositionNaut miles runAvg speedWind from/ knotsBaromVisibWave heightAir tempDewpointWater temp
2015-May-17 07:20N 35°57' W 005°35'4 0.3
2015-May-16 18:21N 35°53' W 005°35'8 0.7
2015-May-16 07:33N 35°59' W 005°29'7 7.0
2015-May-16 06:33N 36°04' W 005°23'5 4.7
2015-May-16 05:26N 36°09' W 005°26'0 0.0
2015-May-16 03:33N 36°09' W 005°26'0 0.0
2015-May-16 02:27N 36°09' W 005°26'0 0.0
2015-May-16 01:33N 36°09' W 005°26'0 0.0
2015-May-16 00:33N 36°09' W 005°26'0 0.0
2015-May-15 23:32N 36°09' W 005°26'0 0.0
2015-May-15 22:32N 36°09' W 005°26'0 0.0
2015-May-15 21:32N 36°09' W 005°26'0 0.0
2015-May-15 20:26N 36°09' W 005°26'0 0.0
2015-May-15 19:32N 36°09' W 005°26'0 0.0
2015-May-15 18:32N 36°09' W 005°26'0 0.0
2015-May-15 17:32N 36°09' W 005°26'0 0.0
2015-May-15 16:23N 36°09' W 005°26'0 0.0
2015-May-15 15:29N 36°09' W 005°26'0 0.0
2015-May-15 14:23N 36°09' W 005°26'0 0.0
2015-May-15 13:32N 36°09' W 005°26'0 0.0
2015-May-15 12:32N 36°09' W 005°26'0 0.0
2015-May-15 11:28N 36°09' W 005°26'0 0.0
2015-May-15 10:07N 36°09' W 005°26'0 0.0
2015-May-15 08:05N 36°09' W 005°26'2 2.9
2015-May-15 07:34N 36°09' W 005°24'2 2.0
2015-May-15 06:34N 36°07' W 005°23'4 3.5
2015-May-15 05:34N 36°05' W 005°20'1 1.1
2015-May-15 04:34N 36°04' W 005°20'3 2.6
2015-May-15 03:34N 36°01' W 005°20'3014.2
2015-May-15 01:27N 35°53' W 005°56'1112.1
2015-May-15 00:33N 35°47' W 006°07'1313.0
2015-May-14 23:33N 35°37' W 006°18'1313.2
2015-May-14 22:33N 35°28' W 006°29'2713.0
2015-May-14 20:31N 35°10' W 006°53'1213.0
2015-May-14 19:33N 35°02' W 007°04'1313.1
2015-May-14 18:33N 34°53' W 007°16'1312.7
2015-May-14 17:33N 34°44' W 007°27'1312.5
2015-May-14 16:33N 34°35' W 007°38'1312.6
2015-May-14 15:33N 34°26' W 007°49'1312.4
2015-May-14 14:33N 34°18' W 007°60'1212.2
2015-May-14 13:33N 34°09' W 008°10'8812.4
2015-May-14 06:26N 33°08' W 009°26'1512.5
2015-May-14 05:12N 32°57' W 009°39'7212.0
2015-May-13 23:11N 32°01' W 010°32'710.8
2015-May-13 22:33N 31°55' W 010°37'1110.8
2015-May-13 21:34N 31°46' W 010°44'1311.2
2015-May-13 20:26N 31°36' W 010°52'1011.6
2015-May-13 19:31N 31°27' W 010°58'  
Track history (hours):
 
Tides and Currents Weather Stations Pressure Air Temp Water Temp Dewpoint Dewpoint Depression Visibility Wind Speed Wind Dir Waves Ship Positions

Taasinge Maersk

Last reported at 2015-May-17 07:20 UTC. Time now 2015-May-23 15:01 UTC.
Position N 35°57' W 005°35'.

Length 191 m; draft 9.2 m.

Type: Cargo ship. MMSI: 220157000.

Date/timePositionNaut miles runAvg speedWind from/ knotsBaromVisibWave heightAir tempDewpointWater temp
2015-May-17 07:20N 35°57' W 005°35'4 0.3
2015-May-16 18:21N 35°53' W 005°35'8 0.7
2015-May-16 07:33N 35°59' W 005°29'7 7.0
2015-May-16 06:33N 36°04' W 005°23'5 4.7
2015-May-16 05:26N 36°09' W 005°26'0 0.0
2015-May-16 03:33N 36°09' W 005°26'0 0.0
2015-May-16 02:27N 36°09' W 005°26'0 0.0
2015-May-16 01:33N 36°09' W 005°26'0 0.0
2015-May-16 00:33N 36°09' W 005°26'0 0.0
2015-May-15 23:32N 36°09' W 005°26'0 0.0
2015-May-15 22:32N 36°09' W 005°26'0 0.0
2015-May-15 21:32N 36°09' W 005°26'0 0.0
2015-May-15 20:26N 36°09' W 005°26'0 0.0
2015-May-15 19:32N 36°09' W 005°26'0 0.0
2015-May-15 18:32N 36°09' W 005°26'0 0.0
2015-May-15 17:32N 36°09' W 005°26'0 0.0
2015-May-15 16:23N 36°09' W 005°26'0 0.0
2015-May-15 15:29N 36°09' W 005°26'0 0.0
2015-May-15 14:23N 36°09' W 005°26'0 0.0
2015-May-15 13:32N 36°09' W 005°26'0 0.0
2015-May-15 12:32N 36°09' W 005°26'0 0.0
2015-May-15 11:28N 36°09' W 005°26'0 0.0
2015-May-15 10:07N 36°09' W 005°26'0 0.0
2015-May-15 08:05N 36°09' W 005°26'2 2.9
2015-May-15 07:34N 36°09' W 005°24'2 2.0
2015-May-15 06:34N 36°07' W 005°23'4 3.5
2015-May-15 05:34N 36°05' W 005°20'1 1.1
2015-May-15 04:34N 36°04' W 005°20'3 2.6
2015-May-15 03:34N 36°01' W 005°20'3014.2
2015-May-15 01:27N 35°53' W 005°56'1112.1
2015-May-15 00:33N 35°47' W 006°07'1313.0
2015-May-14 23:33N 35°37' W 006°18'1313.2
2015-May-14 22:33N 35°28' W 006°29'2713.0
2015-May-14 20:31N 35°10' W 006°53'1213.0
2015-May-14 19:33N 35°02' W 007°04'1313.1
2015-May-14 18:33N 34°53' W 007°16'1312.7
2015-May-14 17:33N 34°44' W 007°27'1312.5
2015-May-14 16:33N 34°35' W 007°38'1312.6
2015-May-14 15:33N 34°26' W 007°49'1312.4
2015-May-14 14:33N 34°18' W 007°60'1212.2
2015-May-14 13:33N 34°09' W 008°10'8812.4
2015-May-14 06:26N 33°08' W 009°26'1512.5
2015-May-14 05:12N 32°57' W 009°39'7212.0
2015-May-13 23:11N 32°01' W 010°32'710.8
2015-May-13 22:33N 31°55' W 010°37'1110.8
2015-May-13 21:34N 31°46' W 010°44'1311.2
2015-May-13 20:26N 31°36' W 010°52'1011.6
2015-May-13 19:31N 31°27' W 010°58'  

Dump ship's entire track history